createdAt,value
2018-07-31T00:00:36.887Z,25.36
2018-07-31T00:01:45.756Z,25.39
2018-07-31T00:02:54.621Z,25.35
2018-07-31T00:04:03.495Z,25.43
2018-07-31T00:05:12.791Z,25.3
2018-07-31T00:06:21.937Z,25.43
2018-07-31T00:07:30.803Z,25.38
2018-07-31T00:08:39.673Z,25.42
2018-07-31T00:09:48.816Z,25.4
2018-07-31T00:10:57.932Z,25.32
2018-07-31T00:12:07.357Z,25.3
2018-07-31T00:13:16.220Z,25.2
2018-07-31T00:14:25.086Z,25.17
2018-07-31T00:15:33.952Z,25.18
2018-07-31T00:16:42.918Z,25.18
2018-07-31T00:17:51.784Z,25.1
2018-07-31T00:19:00.651Z,25.08
2018-07-31T00:20:09.519Z,25.13
2018-07-31T00:21:18.386Z,24.99
2018-07-31T00:22:27.253Z,25
2018-07-31T00:23:36.122Z,25.03
2018-07-31T00:24:45.265Z,25.02
2018-07-31T00:25:54.412Z,24.98
2018-07-31T00:27:03.283Z,25.02
2018-07-31T00:28:12.349Z,24.99
2018-07-31T00:29:21.495Z,24.88
2018-07-31T00:30:30.637Z,24.95
2018-07-31T00:31:39.507Z,24.9
2018-07-31T00:32:48.645Z,24.87
2018-07-31T00:33:57.663Z,24.88
2018-07-31T00:35:06.530Z,24.87
2018-07-31T00:36:15.401Z,24.87
2018-07-31T00:37:24.266Z,24.9
2018-07-31T00:38:33.134Z,24.81
2018-07-31T00:39:42.329Z,24.81
2018-07-31T00:40:51.198Z,24.83
2018-07-31T00:42:00.343Z,24.85
2018-07-31T00:43:09.206Z,24.77
2018-07-31T00:44:18.072Z,24.81
2018-07-31T00:45:26.986Z,24.78
2018-07-31T00:46:35.854Z,24.85
2018-07-31T00:47:44.998Z,24.84
2018-07-31T00:48:54.138Z,24.84
2018-07-31T00:50:03.003Z,24.8
2018-07-31T00:51:12.296Z,24.71
2018-07-31T00:52:21.431Z,24.69
2018-07-31T00:53:30.597Z,24.78
2018-07-31T00:54:39.461Z,24.76
2018-07-31T00:55:48.603Z,24.68
2018-07-31T00:56:57.620Z,24.64
2018-07-31T00:58:06.761Z,24.68
2018-07-31T00:59:15.630Z,24.57
2018-07-31T01:00:24.778Z,24.53
2018-07-31T01:01:33.918Z,24.49
2018-07-31T01:02:42.937Z,24.53
2018-07-31T01:03:51.806Z,24.53
2018-07-31T01:05:00.670Z,24.53
2018-07-31T01:06:09.538Z,24.49
2018-07-31T01:07:18.399Z,24.47
2018-07-31T01:08:27.614Z,24.46
2018-07-31T01:09:36.480Z,24.4
2018-07-31T01:10:45.348Z,24.4
2018-07-31T01:11:54.216Z,24.42
2018-07-31T01:13:03.082Z,24.4
2018-07-31T01:14:11.999Z,24.42
2018-07-31T01:15:20.864Z,24.32
2018-07-31T01:16:30.013Z,24.31
2018-07-31T01:17:38.878Z,24.27
2018-07-31T01:18:47.744Z,24.3
2018-07-31T01:19:56.956Z,24.28
2018-07-31T01:21:05.822Z,24.21
2018-07-31T01:22:14.692Z,24.24
2018-07-31T01:23:23.550Z,24.32
2018-07-31T01:24:32.418Z,24.18
2018-07-31T01:25:41.475Z,24.22
2018-07-31T01:26:50.295Z,24.16
2018-07-31T01:27:59.160Z,24.16
2018-07-31T01:29:08.026Z,24.2
2018-07-31T01:30:16.893Z,24.13
2018-07-31T01:31:26.211Z,24.12
2018-07-31T01:32:35.076Z,24.16
2018-07-31T01:33:43.942Z,24.03
2018-07-31T01:34:52.806Z,23.98
2018-07-31T01:36:01.672Z,24.06
2018-07-31T01:37:10.687Z,24.06
2018-07-31T01:38:19.551Z,23.95
2018-07-31T01:39:28.416Z,23.98
2018-07-31T01:40:37.280Z,23.98
2018-07-31T01:41:46.427Z,24
2018-07-31T01:42:55.294Z,23.93
2018-07-31T01:44:04.159Z,23.95
2018-07-31T01:45:13.023Z,23.91
2018-07-31T01:46:21.890Z,23.95
2018-07-31T01:47:30.757Z,23.94
2018-07-31T01:48:39.623Z,23.84
2018-07-31T01:49:48.489Z,23.84
2018-07-31T01:50:57.634Z,23.93
2018-07-31T01:52:06.501Z,23.93
2018-07-31T01:53:15.670Z,23.83
2018-07-31T01:54:24.861Z,23.76
2018-07-31T01:55:33.729Z,23.78
2018-07-31T01:56:42.595Z,23.76
2018-07-31T01:57:51.461Z,23.78
2018-07-31T01:59:00.608Z,23.76
2018-07-31T02:00:09.797Z,23.76
2018-07-31T02:01:18.662Z,23.8
2018-07-31T02:02:27.531Z,23.75
2018-07-31T02:03:36.395Z,23.76
2018-07-31T02:04:45.261Z,23.72
2018-07-31T02:05:54.476Z,23.73
2018-07-31T02:07:03.634Z,23.73
2018-07-31T02:08:12.492Z,23.63
2018-07-31T02:09:21.358Z,23.65
2018-07-31T02:10:30.498Z,23.7
2018-07-31T02:11:39.688Z,23.69
2018-07-31T02:12:48.556Z,23.63
2018-07-31T02:13:57.697Z,23.65
2018-07-31T02:15:06.841Z,23.66
2018-07-31T02:16:15.706Z,23.68
2018-07-31T02:17:24.691Z,23.69
2018-07-31T02:18:33.542Z,23.61
2018-07-31T02:19:42.409Z,23.68
2018-07-31T02:20:51.278Z,23.61
2018-07-31T02:22:00.140Z,23.7
2018-07-31T02:23:09.002Z,23.65
2018-07-31T02:24:17.864Z,23.65
2018-07-31T02:25:26.732Z,23.68
2018-07-31T02:26:35.876Z,23.61
2018-07-31T02:27:44.739Z,23.68
2018-07-31T02:28:53.884Z,23.66
2018-07-31T02:30:03.035Z,23.69
2018-07-31T02:31:11.904Z,23.65
2018-07-31T02:32:21.047Z,23.55
2018-07-31T02:33:30.193Z,23.58
2018-07-31T02:34:39.057Z,23.54
2018-07-31T02:35:48.207Z,23.65
2018-07-31T02:36:57.901Z,23.69
2018-07-31T02:38:07.042Z,23.58
2018-07-31T02:39:16.181Z,23.63
2018-07-31T02:40:25.480Z,23.61
2018-07-31T02:41:34.352Z,23.55
2018-07-31T02:42:43.772Z,23.57
2018-07-31T02:43:52.943Z,23.58
2018-07-31T02:45:01.810Z,23.61
2018-07-31T02:46:11.051Z,23.6
2018-07-31T02:47:20.477Z,23.61
2018-07-31T02:48:29.910Z,23.5
2018-07-31T02:49:39.385Z,23.5
2018-07-31T02:50:48.527Z,23.58
2018-07-31T02:51:57.501Z,23.51
2018-07-31T02:53:06.370Z,23.48
2018-07-31T02:54:15.233Z,23.47
2018-07-31T02:55:24.102Z,23.53
2018-07-31T02:56:32.967Z,23.46
2018-07-31T02:57:41.937Z,23.48
2018-07-31T02:58:51.363Z,23.38
2018-07-31T03:00:00.513Z,23.39
2018-07-31T03:01:09.665Z,23.36
2018-07-31T03:02:18.528Z,23.36
2018-07-31T03:03:27.646Z,23.39
2018-07-31T03:04:36.802Z,23.36
2018-07-31T03:05:45.655Z,23.33
2018-07-31T03:06:54.521Z,23.39
2018-07-31T03:08:03.400Z,23.4
2018-07-31T03:09:13.018Z,23.32
2018-07-31T03:10:22.162Z,23.31
2018-07-31T03:11:31.591Z,23.28
2018-07-31T03:12:40.459Z,23.32
2018-07-31T03:13:49.326Z,23.25
2018-07-31T03:14:58.346Z,23.35
2018-07-31T03:16:07.784Z,23.23
2018-07-31T03:17:16.656Z,23.39
2018-07-31T03:18:25.521Z,23.33
2018-07-31T03:19:34.673Z,23.19
2018-07-31T03:20:44.290Z,23.19
2018-07-31T03:21:53.720Z,23.31
2018-07-31T03:23:03.143Z,23.25
2018-07-31T03:24:12.008Z,23.13
2018-07-31T03:25:20.875Z,23.09
2018-07-31T03:26:30.346Z,22.98
2018-07-31T03:27:39.215Z,22.98
2018-07-31T03:28:48.077Z,22.94
2018-07-31T03:29:57.231Z,22.86
2018-07-31T03:31:06.928Z,22.73
2018-07-31T03:32:16.172Z,22.72
2018-07-31T03:33:25.035Z,22.75
2018-07-31T03:34:33.900Z,22.76
2018-07-31T03:35:43.042Z,22.77
2018-07-31T03:36:52.454Z,22.85
2018-07-31T03:38:01.846Z,22.73
2018-07-31T03:39:10.711Z,22.73
2018-07-31T03:40:19.850Z,22.64
2018-07-31T03:41:28.712Z,22.64
2018-07-31T03:42:37.576Z,22.64
2018-07-31T03:43:46.493Z,22.52
2018-07-31T03:44:55.359Z,22.6
2018-07-31T03:46:04.501Z,22.61
2018-07-31T03:47:13.367Z,22.67
2018-07-31T03:48:22.230Z,22.57
2018-07-31T03:49:31.250Z,22.6
2018-07-31T03:50:40.667Z,22.58
2018-07-31T03:51:49.805Z,22.58
2018-07-31T03:52:58.676Z,22.46
2018-07-31T03:54:07.823Z,22.51
2018-07-31T03:55:16.738Z,22.43
2018-07-31T03:56:25.638Z,22.36
2018-07-31T03:57:34.464Z,22.33
2018-07-31T03:58:43.328Z,22.3
2018-07-31T03:59:52.469Z,22.31
2018-07-31T04:01:01.341Z,22.24
2018-07-31T04:02:10.479Z,22.18
2018-07-31T04:03:19.345Z,22.2
2018-07-31T04:04:28.210Z,22.2
2018-07-31T04:05:37.579Z,22.18
2018-07-31T04:06:46.865Z,22.2
2018-07-31T04:07:55.728Z,22.2
2018-07-31T04:09:04.591Z,22.25
2018-07-31T04:10:13.455Z,22.2
2018-07-31T04:11:22.597Z,22.14
2018-07-31T04:12:31.562Z,22.18
2018-07-31T04:13:40.429Z,22.2
2018-07-31T04:14:49.295Z,22.2
2018-07-31T04:15:58.440Z,22.21
2018-07-31T04:17:07.697Z,22.21
2018-07-31T04:18:16.663Z,22.22
2018-07-31T04:19:25.530Z,22.24
2018-07-31T04:20:34.401Z,22.21
2018-07-31T04:21:43.262Z,22.22
2018-07-31T04:22:52.404Z,22.17
2018-07-31T04:24:01.548Z,22.18
2018-07-31T04:25:10.414Z,22.18
2018-07-31T04:26:19.278Z,22.22
2018-07-31T04:27:28.140Z,22.21
2018-07-31T04:28:37.011Z,22.27
2018-07-31T04:29:46.298Z,22.2
2018-07-31T04:30:55.723Z,22.2
2018-07-31T04:32:04.586Z,22.21
2018-07-31T04:33:13.451Z,22.18
2018-07-31T04:34:22.314Z,22.21
2018-07-31T04:35:31.177Z,22.25
2018-07-31T04:36:40.042Z,22.25
2018-07-31T04:37:48.905Z,22.27
2018-07-31T04:38:57.769Z,22.35
2018-07-31T04:40:06.632Z,22.33
2018-07-31T04:41:15.992Z,22.25
2018-07-31T04:42:25.360Z,22.28
2018-07-31T04:43:34.535Z,22.3
2018-07-31T04:44:43.681Z,22.31
2018-07-31T04:45:52.542Z,22.28
2018-07-31T04:47:01.412Z,22.31
2018-07-31T04:48:10.278Z,22.28
2018-07-31T04:49:19.427Z,22.36
2018-07-31T04:50:28.902Z,22.31
2018-07-31T04:51:38.043Z,22.21
2018-07-31T04:52:46.908Z,22.31
2018-07-31T04:53:55.774Z,22.35
2018-07-31T04:55:04.646Z,22.25
2018-07-31T04:56:13.512Z,22.33
2018-07-31T04:57:22.378Z,22.35
2018-07-31T04:58:31.239Z,22.33
2018-07-31T04:59:40.107Z,22.36
2018-07-31T05:00:49.251Z,22.39
2018-07-31T05:01:58.114Z,22.43
2018-07-31T05:03:06.982Z,22.43
2018-07-31T05:04:15.882Z,22.45
2018-07-31T05:05:24.716Z,22.42
2018-07-31T05:06:33.860Z,22.54
2018-07-31T05:07:42.723Z,22.46
2018-07-31T05:08:51.590Z,22.47
2018-07-31T05:10:00.464Z,22.47
2018-07-31T05:11:09.377Z,22.49
2018-07-31T05:12:18.549Z,22.52
2018-07-31T05:13:27.414Z,22.52
2018-07-31T05:14:36.282Z,22.43
2018-07-31T05:15:45.425Z,22.49
2018-07-31T05:16:54.290Z,22.45
2018-07-31T05:18:03.158Z,22.47
2018-07-31T05:19:12.023Z,22.49
2018-07-31T05:20:20.887Z,22.49
2018-07-31T05:21:29.753Z,22.54
2018-07-31T05:22:38.617Z,22.54
2018-07-31T05:23:47.482Z,22.64
2018-07-31T05:24:56.366Z,22.61
2018-07-31T05:26:05.235Z,22.65
2018-07-31T05:27:14.380Z,22.57
2018-07-31T05:28:23.245Z,22.57
2018-07-31T05:29:32.109Z,22.72
2018-07-31T05:30:40.971Z,22.64
2018-07-31T05:31:50.113Z,22.7
2018-07-31T05:32:59.595Z,22.64
2018-07-31T05:34:08.735Z,22.68
2018-07-31T05:35:17.600Z,22.72
2018-07-31T05:36:26.467Z,22.76
2018-07-31T05:37:35.331Z,22.72
2018-07-31T05:38:44.198Z,22.82
2018-07-31T05:39:53.346Z,22.79
2018-07-31T05:41:02.216Z,22.8
2018-07-31T05:42:11.082Z,22.88
2018-07-31T05:43:19.948Z,22.86
2018-07-31T05:44:28.864Z,22.9
2018-07-31T05:45:37.728Z,22.83
2018-07-31T05:46:46.596Z,22.97
2018-07-31T05:47:55.463Z,22.95
2018-07-31T05:49:04.332Z,22.95
2018-07-31T05:50:13.758Z,22.92
2018-07-31T05:51:22.904Z,22.98
2018-07-31T05:52:32.049Z,23.05
2018-07-31T05:53:40.914Z,23.01
2018-07-31T05:54:49.778Z,23.02
2018-07-31T05:55:58.647Z,23.07
2018-07-31T05:57:07.664Z,23.02
2018-07-31T05:58:16.806Z,23.05
2018-07-31T05:59:25.672Z,23.13
2018-07-31T06:00:34.623Z,23.09
2018-07-31T06:01:43.490Z,23.09
2018-07-31T06:02:52.358Z,23.05
2018-07-31T06:04:01.226Z,23.32
2018-07-31T06:05:10.093Z,23.22
2018-07-31T06:06:18.960Z,23.27
2018-07-31T06:07:27.827Z,23.22
2018-07-31T06:08:36.693Z,23.23
2018-07-31T06:09:45.562Z,23.22
2018-07-31T06:10:54.705Z,23.2
2018-07-31T06:12:03.569Z,23.19
2018-07-31T06:13:12.436Z,23.19
2018-07-31T06:14:21.303Z,23.39
2018-07-31T06:15:30.169Z,23.23
2018-07-31T06:16:39.310Z,23.28
2018-07-31T06:17:48.175Z,23.31
2018-07-31T06:18:57.043Z,23.4
2018-07-31T06:20:05.909Z,23.36
2018-07-31T06:21:14.774Z,23.32
2018-07-31T06:22:23.656Z,23.38
2018-07-31T06:23:33.124Z,23.39
2018-07-31T06:24:41.992Z,23.39
2018-07-31T06:25:51.135Z,23.36
2018-07-31T06:27:00.052Z,23.39
2018-07-31T06:28:08.867Z,23.5
2018-07-31T06:29:17.733Z,23.48
2018-07-31T06:30:26.603Z,23.57
2018-07-31T06:31:35.824Z,23.6
2018-07-31T06:32:44.989Z,23.57
2018-07-31T06:33:54.204Z,23.63
2018-07-31T06:35:03.346Z,23.68
2018-07-31T06:36:12.207Z,23.65
2018-07-31T06:37:21.071Z,23.61
2018-07-31T06:38:29.936Z,23.69
2018-07-31T06:39:38.802Z,23.66
2018-07-31T06:40:47.669Z,23.61
2018-07-31T06:41:56.534Z,23.69
2018-07-31T06:43:05.827Z,23.57
2018-07-31T06:44:14.696Z,23.7
2018-07-31T06:45:23.567Z,23.7
2018-07-31T06:46:32.430Z,23.7
2018-07-31T06:47:41.297Z,23.69
2018-07-31T06:48:50.440Z,23.68
2018-07-31T06:49:59.629Z,23.7
2018-07-31T06:51:08.498Z,23.73
2018-07-31T06:52:17.367Z,23.79
2018-07-31T06:53:26.510Z,23.79
2018-07-31T06:54:35.387Z,23.78
2018-07-31T06:55:44.533Z,23.75
2018-07-31T06:56:53.399Z,23.83
2018-07-31T06:58:02.266Z,23.9
2018-07-31T06:59:11.130Z,23.8
2018-07-31T07:00:20.347Z,23.87
2018-07-31T07:01:29.496Z,23.97
2018-07-31T07:02:38.372Z,23.97
2018-07-31T07:03:47.239Z,23.95
2018-07-31T07:04:56.386Z,23.94
2018-07-31T07:06:05.965Z,23.94
2018-07-31T07:07:14.830Z,23.97
2018-07-31T07:08:23.698Z,23.97
2018-07-31T07:09:32.565Z,24.08
2018-07-31T07:10:41.434Z,24.09
2018-07-31T07:11:50.684Z,24.05
2018-07-31T07:12:59.548Z,24.1
2018-07-31T07:14:08.688Z,24.15
2018-07-31T07:15:17.558Z,24.2
2018-07-31T07:16:26.423Z,24.27
2018-07-31T07:17:35.438Z,24.31
2018-07-31T07:18:44.303Z,24.28
2018-07-31T07:19:53.173Z,24.31
2018-07-31T07:21:02.041Z,24.32
2018-07-31T07:22:11.188Z,24.35
2018-07-31T07:23:20.056Z,24.4
2018-07-31T07:24:28.921Z,24.43
2018-07-31T07:25:38.068Z,24.53
2018-07-31T07:26:46.935Z,24.57
2018-07-31T07:27:56.235Z,24.55
2018-07-31T07:29:05.411Z,24.52
2018-07-31T07:30:14.277Z,24.57
2018-07-31T07:31:23.143Z,24.69
2018-07-31T07:32:32.010Z,24.67
2018-07-31T07:33:40.906Z,24.78
2018-07-31T07:34:49.746Z,24.84
2018-07-31T07:35:58.611Z,24.8
2018-07-31T07:37:07.478Z,24.83
2018-07-31T07:38:16.629Z,24.95
2018-07-31T07:39:25.492Z,25.03
2018-07-31T07:40:34.356Z,25.05
2018-07-31T07:41:43.222Z,25.08
2018-07-31T07:42:52.645Z,24.98
2018-07-31T07:44:01.513Z,25.14
2018-07-31T07:45:10.718Z,25.14
2018-07-31T07:46:19.870Z,25.17
2018-07-31T07:47:29.031Z,25.14
2018-07-31T07:48:38.583Z,25.2
2018-07-31T07:49:47.891Z,25.35
2018-07-31T07:50:56.758Z,25.33
2018-07-31T07:52:05.895Z,25.43
2018-07-31T07:53:15.187Z,25.42
2018-07-31T07:54:24.655Z,25.42
2018-07-31T07:55:33.552Z,25.38
2018-07-31T07:56:42.425Z,25.42
2018-07-31T07:57:51.509Z,25.39
2018-07-31T07:59:00.611Z,25.46
2018-07-31T08:00:09.774Z,25.45
2018-07-31T08:01:19.167Z,25.45
2018-07-31T08:02:28.475Z,25.51
2018-07-31T08:03:37.732Z,25.61
2018-07-31T08:04:46.889Z,25.6
2018-07-31T08:05:56.116Z,25.61
2018-07-31T08:07:05.351Z,25.61
2018-07-31T08:08:14.504Z,25.8
2018-07-31T08:09:23.429Z,25.82
2018-07-31T08:10:32.789Z,25.82
2018-07-31T08:11:41.823Z,25.85
2018-07-31T08:12:50.910Z,26.05
2018-07-31T08:14:00.488Z,25.97
2018-07-31T08:15:10.124Z,26.06
2018-07-31T08:16:19.550Z,25.98
2018-07-31T08:17:28.618Z,25.98
2018-07-31T08:18:37.750Z,26.07
2018-07-31T08:19:46.964Z,26.15
2018-07-31T08:20:56.326Z,26.2
2018-07-31T08:22:05.270Z,26.21
2018-07-31T08:23:15.016Z,26.2
2018-07-31T08:24:24.047Z,26.32
2018-07-31T08:25:33.465Z,26.39
2018-07-31T08:26:42.565Z,26.39
2018-07-31T08:27:51.622Z,26.47
2018-07-31T08:29:00.679Z,26.54
2018-07-31T08:30:09.678Z,26.51
2018-07-31T08:31:18.581Z,26.45
2018-07-31T08:32:27.599Z,26.51
2018-07-31T08:33:36.824Z,26.54
2018-07-31T08:34:46.892Z,26.58
2018-07-31T08:35:56.183Z,26.54
2018-07-31T08:37:05.505Z,26.67
2018-07-31T08:38:14.865Z,26.72
2018-07-31T08:39:23.918Z,26.76
2018-07-31T08:40:33.248Z,26.76
2018-07-31T08:41:42.492Z,26.77
2018-07-31T08:42:52.356Z,26.82
2018-07-31T08:44:01.371Z,26.89
2018-07-31T08:45:10.699Z,26.87
2018-07-31T08:46:20.511Z,26.92
2018-07-31T08:47:29.634Z,26.75
2018-07-31T08:48:39.568Z,26.84
2018-07-31T08:49:48.549Z,26.92
2018-07-31T08:50:58.266Z,26.89
2018-07-31T08:52:07.758Z,27
2018-07-31T08:53:17.168Z,27.04
2018-07-31T08:54:26.326Z,27.06
2018-07-31T08:55:35.371Z,27.13
2018-07-31T08:56:44.235Z,27.17
2018-07-31T08:57:53.120Z,27.02
2018-07-31T08:59:02.270Z,27.17
2018-07-31T09:00:11.841Z,27.18
2018-07-31T09:01:20.710Z,27.43
2018-07-31T09:02:29.579Z,27.46
2018-07-31T09:03:38.448Z,27.44
2018-07-31T09:04:47.313Z,27.41
2018-07-31T09:05:56.281Z,27.34
2018-07-31T09:07:05.578Z,27.34
2018-07-31T09:08:14.478Z,27.37
2018-07-31T09:09:23.679Z,27.46
2018-07-31T09:10:32.606Z,27.46
2018-07-31T09:11:41.570Z,27.44
2018-07-31T09:12:50.715Z,27.43
2018-07-31T09:13:59.853Z,27.44
2018-07-31T09:15:08.723Z,27.49
2018-07-31T09:16:17.586Z,27.46
2018-07-31T09:17:26.626Z,27.4
2018-07-31T09:18:35.471Z,27.37
2018-07-31T09:19:44.808Z,27.32
2018-07-31T09:20:53.682Z,27.36
2018-07-31T09:22:02.551Z,27.29
2018-07-31T09:23:11.764Z,27.39
2018-07-31T09:24:20.634Z,27.41
2018-07-31T09:25:29.785Z,27.57
2018-07-31T09:26:38.648Z,27.67
2018-07-31T09:27:47.516Z,27.78
2018-07-31T09:28:56.541Z,27.87
2018-07-31T09:30:05.444Z,27.92
2018-07-31T09:31:14.599Z,28.03
2018-07-31T09:32:23.464Z,28
2018-07-31T09:33:32.337Z,28.02
2018-07-31T09:34:41.354Z,27.9
2018-07-31T09:35:50.226Z,27.67
2018-07-31T09:36:59.094Z,27.55
2018-07-31T09:38:08.257Z,27.67
2018-07-31T09:39:17.110Z,27.77
2018-07-31T09:40:26.129Z,27.78
2018-07-31T09:41:35.578Z,27.9
2018-07-31T09:42:45.043Z,27.99
2018-07-31T09:43:53.866Z,27.85
2018-07-31T09:45:02.735Z,28.04
2018-07-31T09:46:11.960Z,28.03
2018-07-31T09:47:21.102Z,28.06
2018-07-31T09:48:30.045Z,28.07
2018-07-31T09:49:39.213Z,28.18
2018-07-31T09:50:48.080Z,28.09
2018-07-31T09:51:56.946Z,28.21
2018-07-31T09:53:05.820Z,28.21
2018-07-31T09:54:14.683Z,28.29
2018-07-31T09:55:23.558Z,28.39
2018-07-31T09:56:32.428Z,28.4
2018-07-31T09:57:41.646Z,28.51
2018-07-31T09:58:50.520Z,28.46
2018-07-31T09:59:59.662Z,28.55
2018-07-31T10:01:08.822Z,28.44
2018-07-31T10:02:17.977Z,28.54
2018-07-31T10:03:27.400Z,28.55
2018-07-31T10:04:36.270Z,28.74
2018-07-31T10:05:45.142Z,28.86
2018-07-31T10:06:54.010Z,28.8
2018-07-31T10:08:02.878Z,28.86
2018-07-31T10:09:11.747Z,29.05
2018-07-31T10:10:20.616Z,29.05
2018-07-31T10:11:29.484Z,29.05
2018-07-31T10:12:38.353Z,29.08
2018-07-31T10:13:47.222Z,29.09
2018-07-31T10:14:56.193Z,29.12
2018-07-31T10:16:05.061Z,29.16
2018-07-31T10:17:13.929Z,29.16
2018-07-31T10:18:22.859Z,29.18
2018-07-31T10:19:31.669Z,29.18
2018-07-31T10:20:40.593Z,29.28
2018-07-31T10:21:49.743Z,29.37
2018-07-31T10:22:58.612Z,29.42
2018-07-31T10:24:07.532Z,29.52
2018-07-31T10:25:16.348Z,29.52
2018-07-31T10:26:25.649Z,29.27
2018-07-31T10:27:34.520Z,29.37
2018-07-31T10:28:43.392Z,29.49
2018-07-31T10:29:52.266Z,29.51
2018-07-31T10:31:01.778Z,29.46
2018-07-31T10:32:10.516Z,29.3
2018-07-31T10:33:19.387Z,29.48
2018-07-31T10:34:28.257Z,29.58
2018-07-31T10:35:37.126Z,29.64
2018-07-31T10:36:45.996Z,29.65
2018-07-31T10:37:55.086Z,29.65
2018-07-31T10:39:03.889Z,29.79
2018-07-31T10:40:12.760Z,29.74
2018-07-31T10:41:21.906Z,29.78
2018-07-31T10:42:31.062Z,29.8
2018-07-31T10:43:40.154Z,29.85
2018-07-31T10:44:48.948Z,29.8
2018-07-31T10:45:57.819Z,29.83
2018-07-31T10:47:06.689Z,29.92
2018-07-31T10:48:15.561Z,29.97
2018-07-31T10:49:24.582Z,30.15
2018-07-31T10:50:33.473Z,30.23
2018-07-31T10:51:42.961Z,30.29
2018-07-31T10:52:52.105Z,30.43
2018-07-31T10:54:00.974Z,30.46
2018-07-31T10:55:09.905Z,30.37
2018-07-31T10:56:19.007Z,30.46
2018-07-31T10:57:27.892Z,30.58
2018-07-31T10:58:36.960Z,30.61
2018-07-31T10:59:46.692Z,30.62
2018-07-31T11:00:55.793Z,30.53
2018-07-31T11:02:05.223Z,30.37
2018-07-31T11:03:14.248Z,30.6
2018-07-31T11:04:23.532Z,30.51
2018-07-31T11:05:32.332Z,30.43
2018-07-31T11:06:41.357Z,30.46
2018-07-31T11:07:50.226Z,30.38
2018-07-31T11:08:59.102Z,30.42
2018-07-31T11:10:07.971Z,30.8
2018-07-31T11:11:16.843Z,30.91
2018-07-31T11:12:26.103Z,30.98
2018-07-31T11:13:34.999Z,30.88
2018-07-31T11:14:43.914Z,30.86
2018-07-31T11:15:52.783Z,31.16
2018-07-31T11:17:01.656Z,31.25
2018-07-31T11:18:10.879Z,31.26
2018-07-31T11:19:19.751Z,31.02
2018-07-31T11:20:28.649Z,31.09
2018-07-31T11:21:37.546Z,30.94
2018-07-31T11:22:46.464Z,30.99
2018-07-31T11:23:55.687Z,31.16
2018-07-31T11:25:04.845Z,31.12
2018-07-31T11:26:13.717Z,31.38
2018-07-31T11:27:22.876Z,31.66
2018-07-31T11:28:32.100Z,31.5
2018-07-31T11:29:41.329Z,31.84
2018-07-31T11:30:50.270Z,32.01
2018-07-31T11:31:59.435Z,32.01
2018-07-31T11:33:08.339Z,32.15
2018-07-31T11:34:17.222Z,32.25
2018-07-31T11:35:26.089Z,32.28
2018-07-31T11:36:34.959Z,32.5
2018-07-31T11:37:43.836Z,32.74
2018-07-31T11:38:52.734Z,32.97
2018-07-31T11:40:01.614Z,33.09
2018-07-31T11:41:10.772Z,33.15
2018-07-31T11:42:19.646Z,33.11
2018-07-31T11:43:28.527Z,33.09
2018-07-31T11:44:37.396Z,33.04
2018-07-31T11:45:46.267Z,33.07
2018-07-31T11:46:55.499Z,33.03
2018-07-31T11:48:04.695Z,33.03
2018-07-31T11:49:13.849Z,33.15
2018-07-31T11:50:23.002Z,32.94
2018-07-31T11:51:31.874Z,33.04
2018-07-31T11:52:41.128Z,33.23
2018-07-31T11:53:50.277Z,33.59
2018-07-31T11:54:59.436Z,33.87
2018-07-31T11:56:08.589Z,33.97
2018-07-31T11:57:17.735Z,33.88
2018-07-31T11:58:26.608Z,33.75
2018-07-31T11:59:35.480Z,33.69
2018-07-31T12:00:44.357Z,33.71
2018-07-31T12:01:53.232Z,33.53
2018-07-31T12:03:02.099Z,33.56
2018-07-31T12:04:11.628Z,33.53
2018-07-31T12:05:21.069Z,33.51
2018-07-31T12:06:30.221Z,33.63
2018-07-31T12:07:39.100Z,33.86
2018-07-31T12:08:47.974Z,34.05
2018-07-31T12:09:56.872Z,34.16
2018-07-31T12:11:05.723Z,34.39
2018-07-31T12:12:14.596Z,34.43
2018-07-31T12:13:23.471Z,34.44
2018-07-31T12:14:32.624Z,34.53
2018-07-31T12:15:41.930Z,34.66
2018-07-31T12:16:50.807Z,34.49
2018-07-31T12:17:59.955Z,34.91
2018-07-31T12:19:08.896Z,35.19
2018-07-31T12:20:17.705Z,35.21
2018-07-31T12:21:26.581Z,35.25
2018-07-31T12:22:35.456Z,35.19
2018-07-31T12:23:44.347Z,35.14
2018-07-31T12:24:53.215Z,35.23
2018-07-31T12:26:02.093Z,35.23
2018-07-31T12:27:10.971Z,35.62
2018-07-31T12:28:19.851Z,35.82
2018-07-31T12:29:28.731Z,35.29
2018-07-31T12:30:37.889Z,35.23
2018-07-31T12:31:47.229Z,35.58
2018-07-31T12:32:56.519Z,35.96
2018-07-31T12:34:05.671Z,36
2018-07-31T12:35:14.823Z,36.28
2018-07-31T12:36:23.700Z,36.43
2018-07-31T12:37:32.579Z,36.32
2018-07-31T12:38:41.460Z,36.39
2018-07-31T12:39:50.629Z,36.62
2018-07-31T12:40:59.512Z,36.32
2018-07-31T12:42:08.687Z,36.59
2018-07-31T12:43:17.571Z,36.28
2018-07-31T12:44:26.477Z,36
2018-07-31T12:45:35.651Z,35.9
2018-07-31T12:46:45.089Z,35.45
2018-07-31T12:47:54.989Z,35.33
2018-07-31T12:49:04.462Z,35.4
2018-07-31T12:50:14.830Z,35.65
2018-07-31T12:51:24.142Z,35.7
2018-07-31T12:52:33.287Z,35.55
2018-07-31T12:53:42.832Z,35.6
2018-07-31T12:54:52.910Z,35.72
2018-07-31T12:56:02.085Z,36.05
2018-07-31T12:57:10.994Z,36.07
2018-07-31T12:58:20.099Z,36.32
2018-07-31T12:59:28.979Z,36.53
2018-07-31T13:00:37.861Z,36.66
2018-07-31T13:01:46.750Z,36.83
2018-07-31T13:02:55.967Z,36.9
2018-07-31T13:04:05.412Z,36.88
2018-07-31T13:05:14.288Z,36.94
2018-07-31T13:06:23.544Z,37.02
2018-07-31T13:07:32.423Z,37.17
2018-07-31T13:08:41.330Z,37.07
2018-07-31T13:09:50.298Z,36.95
2018-07-31T13:10:59.459Z,37.02
2018-07-31T13:12:08.467Z,36.83
2018-07-31T13:13:18.440Z,36.93
2018-07-31T13:14:27.446Z,37.02
2018-07-31T13:15:36.374Z,37.24
2018-07-31T13:16:45.384Z,36.81
2018-07-31T13:17:54.403Z,37.1
2018-07-31T13:19:03.316Z,37.31
2018-07-31T13:20:12.176Z,37.2
2018-07-31T13:21:21.067Z,36.95
2018-07-31T13:22:29.952Z,36.93
2018-07-31T13:23:39.115Z,36.72
2018-07-31T13:24:48.629Z,36.76
2018-07-31T13:25:57.768Z,37.03
2018-07-31T13:27:07.208Z,37.25
2018-07-31T13:28:16.092Z,37.37
2018-07-31T13:29:24.977Z,37.27
2018-07-31T13:30:33.861Z,37.17
2018-07-31T13:31:43.041Z,36.93
2018-07-31T13:32:51.922Z,36.43
2018-07-31T13:34:00.804Z,36.46
2018-07-31T13:35:09.835Z,36.75
2018-07-31T13:36:19.389Z,37.03
2018-07-31T13:37:28.207Z,37.34
2018-07-31T13:38:37.091Z,37.47
2018-07-31T13:39:45.970Z,37.64
2018-07-31T13:40:55.006Z,37.5
2018-07-31T13:42:03.884Z,37.44
2018-07-31T13:43:13.049Z,37.6
2018-07-31T13:44:21.928Z,37.5
2018-07-31T13:45:30.809Z,37.36
2018-07-31T13:46:39.792Z,37.64
2018-07-31T13:47:48.952Z,37.97
2018-07-31T13:48:57.835Z,37.67
2018-07-31T13:50:06.996Z,37.79
2018-07-31T13:51:15.878Z,37.89
2018-07-31T13:52:24.768Z,37.78
2018-07-31T13:53:33.650Z,38.13
2018-07-31T13:54:42.531Z,38.34
2018-07-31T13:55:51.414Z,38.5
2018-07-31T13:57:00.300Z,38.5
2018-07-31T13:58:09.241Z,37.91
2018-07-31T13:59:18.451Z,37.93
2018-07-31T14:00:28.338Z,38.04
2018-07-31T14:01:37.725Z,38.11
2018-07-31T14:02:47.320Z,37.93
2018-07-31T14:03:56.704Z,37.59
2018-07-31T14:05:06.012Z,37.62
2018-07-31T14:06:15.297Z,37.57
2018-07-31T14:07:24.528Z,37.67
2018-07-31T14:08:33.843Z,37.85
2018-07-31T14:09:43.389Z,37.21
2018-07-31T14:10:52.765Z,37.5
2018-07-31T14:12:01.651Z,37.37
2018-07-31T14:13:10.606Z,37.51
2018-07-31T14:14:19.486Z,37.13
2018-07-31T14:15:28.368Z,37.06
2018-07-31T14:16:37.256Z,37.24
2018-07-31T14:17:46.144Z,37.49
2018-07-31T14:18:55.089Z,37.56
2018-07-31T14:20:04.367Z,37.64
2018-07-31T14:21:13.249Z,37.84
2018-07-31T14:22:22.418Z,38.22
2018-07-31T14:23:31.659Z,38.15
2018-07-31T14:24:40.539Z,38.23
2018-07-31T14:25:49.421Z,38.31
2018-07-31T14:26:58.730Z,38.44
2018-07-31T14:28:07.613Z,38.26
2018-07-31T14:29:16.495Z,38.61
2018-07-31T14:30:25.387Z,38.66
2018-07-31T14:31:34.294Z,38.87
2018-07-31T14:32:43.531Z,38.93
2018-07-31T14:33:52.439Z,38.47
2018-07-31T14:35:01.612Z,38.6
2018-07-31T14:36:10.496Z,38.69
2018-07-31T14:37:19.381Z,38.61
2018-07-31T14:38:28.618Z,38.28
2018-07-31T14:39:37.683Z,37.82
2018-07-31T14:40:47.363Z,37.72
2018-07-31T14:41:56.461Z,37.76
2018-07-31T14:43:05.765Z,37.96
2018-07-31T14:44:15.147Z,37.96
2018-07-31T14:45:24.314Z,38.12
2018-07-31T14:46:33.196Z,38.42
2018-07-31T14:47:42.080Z,38.6
2018-07-31T14:48:51.263Z,38.72
2018-07-31T14:50:00.855Z,38.23
2018-07-31T14:51:09.737Z,38.59
2018-07-31T14:52:18.622Z,38.75